createdAt,value
2022-08-09T00:02:30.361Z,100045.06
2022-08-09T00:07:44.286Z,100052.63
2022-08-09T00:12:47.164Z,100029.44
2022-08-09T00:18:05.297Z,100023.19
2022-08-09T00:23:56.663Z,100004.16
2022-08-09T00:28:35.553Z,100010.13
2022-08-09T00:33:50.557Z,99978.31
2022-08-09T00:38:53.456Z,99961.34
2022-08-09T00:44:14.427Z,99930.34
2022-08-09T00:49:18.271Z,99933.09
2022-08-09T00:54:34.962Z,99938.38
2022-08-09T00:59:46.392Z,99931.44
2022-08-09T01:04:56.964Z,99924.06
2022-08-09T01:09:58.961Z,99927.94
2022-08-09T01:15:06.040Z,99935.81
2022-08-09T01:20:45.946Z,99941.16
2022-08-09T01:26:26.128Z,99953.38
2022-08-09T01:32:28.219Z,99949.22
2022-08-09T01:36:55.145Z,99950.97
2022-08-09T01:42:01.417Z,99938.63
2022-08-09T01:47:07.800Z,99932.25
2022-08-09T01:52:17.897Z,99934.38
2022-08-09T01:57:27.257Z,99962.22
2022-08-09T02:02:33.374Z,99953.59
2022-08-09T02:08:35.882Z,99954.38
2022-08-09T02:13:09.871Z,99956.63
2022-08-09T02:18:12.306Z,99953.13
2022-08-09T02:23:25.963Z,99965.84
2022-08-09T02:28:43.401Z,99982.31
2022-08-09T02:34:07.580Z,99980.69
2022-08-09T02:39:20.022Z,99989.06
2022-08-09T02:44:40.736Z,99995.78
2022-08-09T02:50:01.813Z,99993.63
2022-08-09T02:55:19.794Z,100002.09
2022-08-09T03:00:26.369Z,99998.53
2022-08-09T03:05:34.463Z,100003.66
2022-08-09T03:10:38.289Z,100008.53
2022-08-09T03:16:06.613Z,100015.38
2022-08-09T03:21:05.808Z,100017.94
2022-08-09T03:26:08.605Z,100027.16
2022-08-09T03:31:22.544Z,100020.22
2022-08-09T03:36:26.994Z,100008.09
2022-08-09T03:41:45.909Z,100009.34
2022-08-09T03:46:51.119Z,99980.75
2022-08-09T03:52:00.125Z,99992.59
2022-08-09T03:57:18.109Z,100000.31
2022-08-09T04:02:30.563Z,99983.38
2022-08-09T04:07:47.532Z,99994.91
2022-08-09T04:12:55.322Z,100002.63
2022-08-09T04:17:57.564Z,100002.09
2022-08-09T04:23:00.048Z,99998.91
2022-08-09T04:28:03.582Z,100004.78
2022-08-09T04:33:05.931Z,100003.44
2022-08-09T04:38:09.977Z,99997.53
2022-08-09T04:43:12.373Z,99998.09
2022-08-09T04:48:16.111Z,99993.50
2022-08-09T04:53:18.473Z,99996.94
2022-08-09T04:58:20.583Z,99986.16
2022-08-09T05:03:41.176Z,99985.53
2022-08-09T05:08:47.766Z,99982.88
2022-08-09T05:13:50.231Z,99981.81
2022-08-09T05:18:59.212Z,99978.38
2022-08-09T05:24:03.937Z,99980.75
2022-08-09T05:29:06.769Z,99987.16
2022-08-09T05:34:08.763Z,99987.22
2022-08-09T05:39:28.543Z,99974.56
2022-08-09T05:44:32.803Z,99988.44
2022-08-09T05:50:32.124Z,99970.94
2022-08-09T05:54:57.219Z,99971.13
2022-08-09T06:00:08.082Z,99963.00
2022-08-09T06:05:14.276Z,99977.44
2022-08-09T06:10:19.429Z,99983.19
2022-08-09T06:15:21.503Z,99974.34
2022-08-09T06:20:23.612Z,99956.72
2022-08-09T06:25:26.542Z,99977.03
2022-08-09T06:30:29.092Z,99958.63
2022-08-09T06:35:56.468Z,99965.59
2022-08-09T06:40:54.888Z,99966.69
2022-08-09T06:46:10.545Z,99975.28
2022-08-09T06:51:14.905Z,99968.75
2022-08-09T06:56:18.955Z,99972.78
2022-08-09T07:01:21.369Z,99965.22
2022-08-09T07:06:27.901Z,99972.69
2022-08-09T07:11:34.214Z,99972.91
2022-08-09T07:16:55.419Z,99976.09
2022-08-09T07:22:00.041Z,99969.56
2022-08-09T07:27:02.547Z,99976.09
2022-08-09T07:32:05.583Z,99979.94
2022-08-09T07:37:15.582Z,99976.69
2022-08-09T07:42:18.151Z,99952.38
2022-08-09T07:47:20.873Z,99972.06
2022-08-09T07:52:38.270Z,99975.28
2022-08-09T07:57:46.847Z,99991.16
2022-08-09T08:02:49.497Z,99965.63
2022-08-09T08:08:43.231Z,99973.38
2022-08-09T08:13:17.098Z,99956.53
2022-08-09T08:18:22.282Z,99966.44
2022-08-09T08:23:27.281Z,99988.09
2022-08-09T08:28:32.832Z,99987.28
2022-08-09T08:33:40.618Z,99982.47
2022-08-09T08:38:56.389Z,99989.94
2022-08-09T08:44:02.473Z,100005.31
2022-08-09T08:49:07.585Z,99993.97
2022-08-09T08:54:20.046Z,100010.94
2022-08-09T08:59:22.943Z,100006.00
2022-08-09T09:04:41.557Z,100000.34
2022-08-09T09:10:01.979Z,99997.19
2022-08-09T09:15:07.425Z,99999.16
2022-08-09T09:20:15.338Z,99996.59
2022-08-09T09:26:04.209Z,99986.88
2022-08-09T09:31:17.560Z,99985.69
2022-08-09T09:36:39.779Z,99992.56
2022-08-09T09:41:54.302Z,99984.97
2022-08-09T09:47:03.828Z,99985.91
2022-08-09T09:52:16.298Z,99975.09
2022-08-09T09:58:04.023Z,99976.22
2022-08-09T10:02:56.238Z,99969.00
2022-08-09T10:08:26.916Z,99967.38
2022-08-09T10:13:43.261Z,99962.38
2022-08-09T10:18:54.334Z,99966.47
2022-08-09T10:24:00.417Z,99967.41
2022-08-09T10:29:31.359Z,99967.78
2022-08-09T10:34:33.963Z,99960.31
2022-08-09T10:39:49.742Z,99966.59
2022-08-09T10:45:10.628Z,99967.06
2022-08-09T10:51:06.825Z,99963.53
2022-08-09T10:56:27.705Z,99958.72
2022-08-09T11:03:27.528Z,99970.53
2022-08-09T11:07:03.626Z,99971.38
2022-08-09T11:12:17.155Z,99976.19
2022-08-09T11:17:22.317Z,99970.25
2022-08-09T11:22:40.901Z,99971.63
2022-08-09T11:28:02.735Z,99971.56
2022-08-09T11:33:20.429Z,99967.19
2022-08-09T11:38:28.533Z,99976.94
2022-08-09T11:43:34.914Z,99960.22
2022-08-09T11:48:50.758Z,99971.88
2022-08-09T11:54:27.605Z,99971.91
2022-08-09T11:59:33.668Z,99958.72
2022-08-09T12:04:37.728Z,99962.78
2022-08-09T12:09:40.395Z,99954.38
2022-08-09T12:15:07.302Z,99964.78
2022-08-09T12:20:21.983Z,99965.53
2022-08-09T12:25:35.969Z,99961.72
2022-08-09T12:30:40.061Z,99959.69
2022-08-09T12:35:43.097Z,99960.59
2022-08-09T12:40:47.968Z,99960.44
2022-08-09T12:45:59.943Z,99950.00
2022-08-09T12:51:03.930Z,99944.34
2022-08-09T12:56:15.739Z,99950.34
2022-08-09T13:01:30.282Z,99945.84
2022-08-09T13:06:37.801Z,99938.94
2022-08-09T13:11:46.926Z,99950.38
2022-08-09T13:16:54.679Z,99946.81
2022-08-09T13:23:00.420Z,99954.88
2022-08-09T13:27:48.082Z,99941.09
2022-08-09T13:32:57.522Z,99932.50
2022-08-09T13:38:00.345Z,99942.63
2022-08-09T13:43:05.130Z,99930.22
2022-08-09T13:48:11.700Z,99940.47
2022-08-09T13:53:16.809Z,99944.09
2022-08-09T13:58:18.877Z,99931.16
2022-08-09T14:04:02.336Z,99930.50
2022-08-09T14:08:44.026Z,99940.81
2022-08-09T14:14:22.003Z,99940.59
2022-08-09T14:19:09.400Z,99940.44
2022-08-09T14:24:22.013Z,99939.13
2022-08-09T14:30:35.091Z,99943.97
2022-08-09T14:34:56.879Z,99930.41
2022-08-09T14:39:59.145Z,99946.19
2022-08-09T14:46:40.171Z,99951.56
2022-08-09T14:50:30.392Z,99958.75
2022-08-09T14:55:33.163Z,99958.44
2022-08-09T15:00:36.130Z,99961.44
2022-08-09T15:05:39.599Z,99956.47
2022-08-09T15:11:00.906Z,99968.69
2022-08-09T15:16:07.881Z,99964.81
2022-08-09T15:21:57.382Z,99968.50
2022-08-09T15:26:32.446Z,99959.47
2022-08-09T15:31:40.902Z,99977.03
2022-08-09T15:36:48.216Z,99961.94
2022-08-09T15:41:50.854Z,99963.09
2022-08-09T15:46:53.112Z,99965.44
2022-08-09T15:52:04.697Z,99963.84
2022-08-09T15:57:09.471Z,99954.50
2022-08-09T16:02:13.323Z,99955.56
2022-08-09T16:07:16.256Z,99960.78
2022-08-09T16:12:19.332Z,99966.72
2022-08-09T16:17:22.061Z,99962.53
2022-08-09T16:22:24.657Z,99960.25
2022-08-09T16:27:29.885Z,99972.50
2022-08-09T16:32:53.290Z,99977.72
2022-08-09T16:37:56.994Z,99975.84
2022-08-09T16:43:02.314Z,99981.28
2022-08-09T16:48:39.216Z,99987.19
2022-08-09T16:53:34.276Z,99982.50
2022-08-09T16:58:39.767Z,99999.75
2022-08-09T17:03:44.719Z,99988.31
2022-08-09T17:09:01.559Z,99988.00
2022-08-09T17:14:07.543Z,100004.50
2022-08-09T17:19:10.647Z,100009.31
2022-08-09T17:24:27.628Z,99981.22
2022-08-09T17:29:37.945Z,99999.75
2022-08-09T17:35:01.490Z,99988.47
2022-08-09T17:40:06.996Z,100007.00
2022-08-09T17:45:27.442Z,100005.94
2022-08-09T17:50:56.004Z,100005.44
2022-08-09T17:56:03.361Z,100006.38
2022-08-09T18:01:10.148Z,100002.38
2022-08-09T18:06:31.238Z,99987.56
2022-08-09T18:12:05.517Z,100003.16
2022-08-09T18:16:58.392Z,99994.78
2022-08-09T18:22:01.464Z,99996.97
2022-08-09T18:27:03.822Z,100001.84
2022-08-09T18:32:09.668Z,99995.97
2022-08-09T18:37:48.119Z,99993.38
2022-08-09T18:42:34.882Z,100007.13
2022-08-09T18:47:38.814Z,100007.47
2022-08-09T18:52:42.768Z,99990.88
2022-08-09T18:57:45.563Z,100006.00
2022-08-09T19:02:50.951Z,100008.53
2022-08-09T19:08:04.459Z,100010.09
2022-08-09T19:13:18.437Z,100013.47
2022-08-09T19:18:36.492Z,100010.63
2022-08-09T19:24:33.310Z,100011.91
2022-08-09T19:29:15.427Z,100009.00
2022-08-09T19:34:22.632Z,100004.97
2022-08-09T19:39:29.238Z,100005.66
2022-08-09T19:44:51.266Z,100006.97
2022-08-09T19:50:08.467Z,100006.56
2022-08-09T19:55:16.654Z,100008.09
2022-08-09T20:00:21.575Z,99996.34
2022-08-09T20:05:24.934Z,100003.41
2022-08-09T20:10:36.463Z,100006.53
2022-08-09T20:16:37.028Z,99995.78
2022-08-09T20:21:02.010Z,99999.16
2022-08-09T20:26:04.413Z,99992.84
2022-08-09T20:31:09.279Z,100001.56
2022-08-09T20:36:12.499Z,100007.00
2022-08-09T20:41:14.860Z,99999.75
2022-08-09T20:46:42.341Z,99998.94
2022-08-09T20:51:40.924Z,100005.78
2022-08-09T20:56:49.723Z,100015.09
2022-08-09T21:01:55.630Z,100009.97
2022-08-09T21:06:57.784Z,100004.66
2022-08-09T21:18:21.221Z,100005.47
2022-08-09T21:22:37.997Z,100009.69
2022-08-09T21:27:52.681Z,100007.38
2022-08-09T21:32:55.299Z,100001.03
2022-08-09T21:38:00.523Z,99995.53
2022-08-09T21:43:06.194Z,100004.25
2022-08-09T21:48:08.589Z,99983.69
2022-08-09T21:53:19.804Z,100003.25
2022-08-09T21:58:32.861Z,100001.22
2022-08-09T22:03:59.256Z,99999.63
2022-08-09T22:09:00.269Z,99993.00
2022-08-09T22:14:02.924Z,99988.50
2022-08-09T22:19:53.395Z,99988.53
2022-08-09T22:24:26.985Z,99993.50
2022-08-09T22:29:46.579Z,99993.09
2022-08-09T22:34:59.198Z,99997.84
2022-08-09T22:40:20.032Z,99993.69
2022-08-09T22:48:10.775Z,100007.72
2022-08-09T22:50:53.098Z,100006.34
2022-08-09T22:56:31.133Z,100001.19
2022-08-09T23:01:18.108Z,100003.06
2022-08-09T23:06:20.386Z,99999.38
2022-08-09T23:11:37.902Z,100004.31
2022-08-09T23:16:39.772Z,100003.00
2022-08-09T23:21:42.168Z,99988.06
2022-08-09T23:26:44.837Z,100002.09
2022-08-09T23:31:50.175Z,100007.84
2022-08-09T23:36:54.482Z,100003.31
2022-08-09T23:41:56.391Z,100011.06
2022-08-09T23:46:58.449Z,99997.34
2022-08-09T23:52:00.389Z,100006.94
2022-08-09T23:57:02.504Z,100004.13
